createdAt,value
2022-11-02T00:01:56.188Z,14.40
2022-11-02T00:04:23.158Z,14.40
2022-11-02T00:06:49.967Z,14.40
2022-11-02T00:09:20.059Z,14.30
2022-11-02T00:11:47.671Z,14.20
2022-11-02T00:14:14.485Z,14.10
2022-11-02T00:16:41.426Z,14.10
2022-11-02T00:19:09.542Z,14.00
2022-11-02T00:21:37.820Z,14.00
2022-11-02T00:24:06.037Z,14.10
2022-11-02T00:26:35.514Z,14.10
2022-11-02T00:29:05.015Z,14.10
2022-11-02T00:31:31.842Z,14.00
2022-11-02T00:33:58.755Z,13.90
2022-11-02T00:36:25.618Z,13.90
2022-11-02T00:38:52.439Z,13.80
2022-11-02T00:41:21.171Z,13.80
2022-11-02T00:43:48.225Z,13.70
2022-11-02T00:46:15.068Z,13.60
2022-11-02T00:48:42.146Z,13.60
2022-11-02T00:51:09.747Z,13.60
2022-11-02T00:53:36.632Z,13.50
2022-11-02T00:56:03.677Z,13.50
2022-11-02T00:58:30.655Z,13.40
2022-11-02T01:00:57.910Z,13.30
2022-11-02T01:03:25.874Z,13.30
2022-11-02T01:05:52.678Z,13.30
2022-11-02T01:08:19.540Z,13.20
2022-11-02T01:10:48.324Z,13.30
2022-11-02T01:13:17.103Z,13.30
2022-11-02T01:15:44.189Z,13.30
2022-11-02T01:18:11.025Z,13.40
2022-11-02T01:20:37.848Z,13.40
2022-11-02T01:23:08.139Z,13.40
2022-11-02T01:25:34.987Z,13.40
2022-11-02T01:28:02.223Z,13.50
2022-11-02T01:30:29.214Z,13.40
2022-11-02T01:32:56.031Z,13.50
2022-11-02T01:35:22.826Z,13.50
2022-11-02T01:37:49.649Z,13.50
2022-11-02T01:40:16.695Z,13.60
2022-11-02T01:42:43.469Z,13.70
2022-11-02T01:45:13.471Z,13.70
2022-11-02T01:47:44.408Z,13.70
2022-11-02T01:50:21.647Z,13.60
2022-11-02T01:52:48.518Z,13.50
2022-11-02T01:55:19.426Z,13.40
2022-11-02T01:57:52.107Z,13.30
2022-11-02T02:00:19.349Z,13.20
2022-11-02T02:02:54.462Z,13.10
2022-11-02T02:05:23.691Z,13.00
2022-11-02T02:07:52.367Z,13.00
2022-11-02T02:10:19.705Z,13.00
2022-11-02T02:12:47.343Z,12.90
2022-11-02T02:15:17.834Z,13.00
2022-11-02T02:17:59.234Z,12.90
2022-11-02T02:20:49.756Z,12.80
2022-11-02T02:23:44.068Z,12.80
2022-11-02T02:26:32.528Z,12.90
2022-11-02T02:29:10.674Z,12.90
2022-11-02T02:31:45.516Z,12.90
2022-11-02T02:34:22.397Z,12.80
2022-11-02T02:36:51.808Z,12.70
2022-11-02T02:39:34.892Z,12.70
2022-11-02T02:42:12.403Z,12.80
2022-11-02T02:44:44.687Z,12.70
2022-11-02T02:47:18.039Z,12.70
2022-11-02T02:49:56.123Z,12.80
2022-11-02T02:52:26.948Z,12.80
2022-11-02T02:54:59.007Z,12.80
2022-11-02T02:57:30.381Z,12.80
2022-11-02T02:59:57.320Z,12.70
2022-11-02T03:02:32.321Z,12.80
2022-11-02T03:04:59.258Z,12.80
2022-11-02T03:07:32.901Z,12.80
2022-11-02T03:10:22.391Z,12.70
2022-11-02T03:13:02.013Z,12.70
2022-11-02T03:15:40.513Z,12.70
2022-11-02T03:18:17.750Z,12.70
2022-11-02T03:20:56.292Z,12.70
2022-11-02T03:23:33.374Z,12.70
2022-11-02T03:26:13.716Z,12.70
2022-11-02T03:28:58.575Z,12.60
2022-11-02T03:31:44.132Z,12.60
2022-11-02T03:34:26.711Z,12.60
2022-11-02T03:40:32.562Z,12.60
2022-11-02T03:43:02.677Z,12.60
2022-11-02T03:45:35.560Z,12.60
2022-11-02T03:48:07.707Z,12.60
2022-11-02T03:50:37.437Z,12.60
2022-11-02T03:53:12.671Z,12.50
2022-11-02T03:55:45.297Z,12.50
2022-11-02T03:58:12.539Z,12.50
2022-11-02T04:00:50.048Z,12.60
2022-11-02T04:03:18.683Z,12.50
2022-11-02T04:05:45.464Z,12.50
2022-11-02T04:08:34.583Z,12.50
2022-11-02T04:11:24.364Z,12.50
2022-11-02T04:14:12.524Z,12.50
2022-11-02T04:16:42.705Z,12.50
2022-11-02T04:19:27.453Z,12.50
2022-11-02T04:22:16.312Z,12.50
2022-11-02T04:25:04.937Z,12.40
2022-11-02T04:27:33.864Z,12.50
2022-11-02T04:30:01.333Z,12.40
2022-11-02T04:32:49.675Z,12.40
2022-11-02T04:35:18.055Z,12.40
2022-11-02T04:38:05.335Z,12.40
2022-11-02T04:40:36.523Z,12.40
2022-11-02T04:43:04.975Z,12.30
2022-11-02T04:45:33.705Z,12.30
2022-11-02T04:48:06.812Z,12.30
2022-11-02T04:50:35.215Z,12.30
2022-11-02T04:53:04.180Z,12.30
2022-11-02T04:55:33.157Z,12.30
2022-11-02T04:58:00.147Z,12.30
2022-11-02T05:00:27.731Z,12.30
2022-11-02T05:02:54.992Z,12.30
2022-11-02T05:05:23.783Z,12.20
2022-11-02T05:07:53.587Z,12.20
2022-11-02T05:10:20.628Z,12.20
2022-11-02T05:12:48.992Z,12.10
2022-11-02T05:15:15.990Z,12.10
2022-11-02T05:17:42.958Z,12.10
2022-11-02T05:20:10.766Z,12.10
2022-11-02T05:22:41.901Z,12.20
2022-11-02T05:25:12.796Z,12.10
2022-11-02T05:27:39.646Z,12.10
2022-11-02T05:30:07.987Z,12.00
2022-11-02T05:32:35.301Z,12.00
2022-11-02T05:35:02.952Z,12.00
2022-11-02T05:37:30.508Z,12.00
2022-11-02T05:39:58.578Z,11.90
2022-11-02T05:42:25.916Z,11.90
2022-11-02T05:44:52.800Z,11.90
2022-11-02T05:47:19.699Z,11.90
2022-11-02T05:49:46.580Z,11.90
2022-11-02T05:52:13.384Z,12.00
2022-11-02T06:06:29.056Z,11.80
2022-11-02T06:08:55.888Z,11.80
2022-11-02T06:11:22.668Z,11.90
2022-11-02T06:13:51.011Z,11.90
2022-11-02T06:16:22.635Z,12.00
2022-11-02T06:18:50.740Z,12.00
2022-11-02T06:21:17.671Z,12.00
2022-11-02T06:23:47.494Z,12.00
2022-11-02T06:26:14.547Z,12.00
2022-11-02T06:28:41.378Z,12.00
2022-11-02T06:31:08.494Z,12.00
2022-11-02T06:33:35.294Z,12.00
2022-11-02T06:36:02.091Z,11.90
2022-11-02T06:38:28.875Z,11.90
2022-11-02T06:41:00.320Z,11.90
2022-11-02T06:43:27.125Z,11.90
2022-11-02T06:45:55.713Z,11.90
2022-11-02T06:48:22.880Z,11.90
2022-11-02T06:50:49.657Z,11.90
2022-11-02T06:53:16.586Z,12.00
2022-11-02T06:55:43.380Z,12.00
2022-11-02T06:58:10.390Z,12.10
2022-11-02T07:00:37.330Z,12.10
2022-11-02T07:03:06.982Z,12.20
2022-11-02T07:05:35.765Z,12.20
2022-11-02T07:08:03.431Z,12.20
2022-11-02T07:10:30.391Z,12.20
2022-11-02T07:12:58.170Z,12.20
2022-11-02T07:15:26.242Z,12.30
2022-11-02T07:17:53.490Z,12.50
2022-11-02T07:20:20.716Z,12.70
2022-11-02T07:22:59.600Z,12.90
2022-11-02T07:25:28.727Z,13.10
2022-11-02T07:27:55.477Z,13.20
2022-11-02T07:30:22.532Z,13.40
2022-11-02T07:32:49.375Z,13.50
2022-11-02T07:35:17.584Z,13.60
2022-11-02T07:37:45.086Z,13.50
2022-11-02T07:40:14.236Z,13.40
2022-11-02T07:42:46.179Z,13.20
2022-11-02T07:45:13.362Z,13.00
2022-11-02T07:47:45.016Z,13.00
2022-11-02T07:50:13.525Z,13.20
2022-11-02T07:52:47.187Z,13.50
2022-11-02T07:55:16.325Z,13.70
2022-11-02T07:57:43.862Z,14.00
2022-11-02T08:00:12.017Z,14.00
2022-11-02T08:02:39.326Z,14.00
2022-11-02T08:05:06.590Z,14.20
2022-11-02T08:07:33.388Z,14.00
2022-11-02T08:10:00.343Z,13.70
2022-11-02T08:12:28.022Z,13.60
2022-11-02T08:14:54.965Z,13.50
2022-11-02T08:17:21.895Z,13.40
2022-11-02T08:19:48.715Z,13.40
2022-11-02T08:22:15.602Z,13.30
2022-11-02T08:24:42.427Z,13.40
2022-11-02T08:27:09.218Z,13.30
2022-11-02T08:29:36.911Z,13.40
2022-11-02T08:32:03.831Z,13.40
2022-11-02T08:34:30.587Z,13.40
2022-11-02T08:36:57.550Z,13.40
2022-11-02T08:39:24.355Z,13.50
2022-11-02T08:41:51.206Z,13.60
2022-11-02T08:44:18.061Z,13.60
2022-11-02T08:46:44.964Z,13.60
2022-11-02T08:49:11.866Z,13.60
2022-11-02T08:51:38.631Z,13.60
2022-11-02T08:54:05.511Z,13.70
2022-11-02T08:56:32.298Z,13.80
2022-11-02T08:58:59.056Z,13.90
2022-11-02T09:01:25.930Z,13.90
2022-11-02T09:03:52.806Z,13.80
2022-11-02T09:06:19.652Z,13.80
2022-11-02T09:08:46.462Z,13.80
2022-11-02T09:11:13.310Z,13.80
2022-11-02T09:13:40.219Z,14.00
2022-11-02T09:16:07.314Z,14.20
2022-11-02T09:18:34.127Z,14.20
2022-11-02T09:21:05.206Z,14.10
2022-11-02T09:23:32.230Z,14.00
2022-11-02T09:26:00.140Z,13.70
2022-11-02T09:28:26.941Z,13.50
2022-11-02T09:30:53.884Z,13.50
2022-11-02T09:33:20.658Z,13.50
2022-11-02T09:35:49.939Z,13.50
2022-11-02T09:38:18.537Z,13.60
2022-11-02T09:40:58.679Z,13.70
2022-11-02T09:43:38.824Z,13.80
2022-11-02T09:46:13.807Z,13.80
2022-11-02T09:48:52.715Z,13.90
2022-11-02T09:51:24.772Z,13.90
2022-11-02T09:54:06.386Z,14.00
2022-11-02T09:56:35.324Z,14.10
2022-11-02T09:59:12.042Z,14.10
2022-11-02T10:02:13.082Z,14.30
2022-11-02T10:05:18.395Z,14.40
2022-11-02T10:08:08.448Z,14.40
2022-11-02T10:10:57.806Z,14.40
2022-11-02T10:13:52.548Z,14.30
2022-11-02T10:16:39.741Z,14.30
2022-11-02T10:19:14.017Z,14.30
2022-11-02T10:21:43.764Z,14.20
2022-11-02T10:24:31.790Z,14.20
2022-11-02T10:27:09.104Z,14.20
2022-11-02T10:29:55.385Z,14.20
2022-11-02T10:32:22.470Z,14.20
2022-11-02T10:34:58.478Z,14.20
2022-11-02T10:38:09.360Z,14.20
2022-11-02T10:40:57.574Z,14.30
2022-11-02T10:43:33.264Z,14.40
2022-11-02T10:46:11.658Z,14.50
2022-11-02T10:48:55.994Z,14.50
2022-11-02T10:51:24.862Z,14.50
2022-11-02T10:53:53.268Z,14.60
2022-11-02T10:56:21.208Z,14.60
2022-11-02T10:59:02.993Z,14.60
2022-11-02T11:01:31.715Z,14.50
2022-11-02T11:04:02.665Z,14.50
2022-11-02T11:06:31.124Z,14.50
2022-11-02T11:09:05.689Z,14.40
2022-11-02T11:11:36.013Z,14.50
2022-11-02T11:19:52.732Z,14.70
2022-11-02T11:22:32.420Z,14.60
2022-11-02T11:25:28.506Z,14.60
2022-11-02T11:27:58.141Z,14.70
2022-11-02T11:30:58.218Z,14.70
2022-11-02T11:33:20.925Z,14.70
2022-11-02T11:35:50.235Z,14.60
2022-11-02T11:38:21.514Z,14.50
2022-11-02T11:40:57.588Z,14.50
2022-11-02T11:43:30.577Z,14.60
2022-11-02T11:46:06.537Z,14.60
2022-11-02T11:48:45.077Z,14.70
2022-11-02T11:51:42.439Z,14.60
2022-11-02T11:54:29.919Z,14.70
2022-11-02T11:57:19.138Z,14.70
2022-11-02T11:59:48.183Z,14.80
2022-11-02T12:02:31.385Z,15.00
2022-11-02T12:05:00.944Z,15.20
2022-11-02T12:07:55.859Z,15.30
2022-11-02T12:10:47.673Z,15.40
2022-11-02T12:13:17.286Z,15.40
2022-11-02T12:16:00.716Z,15.30
2022-11-02T12:18:46.063Z,15.20
2022-11-02T12:21:31.879Z,15.10
2022-11-02T12:24:12.051Z,15.20
2022-11-02T12:26:47.960Z,15.30
2022-11-02T12:29:31.114Z,15.30
2022-11-02T12:32:12.934Z,15.00
2022-11-02T12:34:57.688Z,14.80
2022-11-02T12:37:47.083Z,14.70
2022-11-02T12:40:37.010Z,14.60
2022-11-02T12:43:41.408Z,14.80
2022-11-02T12:46:37.933Z,15.00
2022-11-02T12:49:36.566Z,15.30
2022-11-02T12:52:11.958Z,15.30
2022-11-02T12:54:52.075Z,15.30
2022-11-02T12:57:22.207Z,15.10
2022-11-02T12:59:54.896Z,15.00
2022-11-02T13:02:27.459Z,14.80
2022-11-02T13:05:02.725Z,14.90
2022-11-02T13:07:46.579Z,14.90
2022-11-02T13:10:21.651Z,15.10
2022-11-02T13:12:57.051Z,15.30
2022-11-02T13:15:26.213Z,15.30
2022-11-02T13:18:07.159Z,15.20
2022-11-02T13:20:42.079Z,15.00
2022-11-02T13:26:04.780Z,14.80
2022-11-02T13:28:43.241Z,14.70
2022-11-02T13:31:25.858Z,14.80
2022-11-02T13:33:55.491Z,14.80
2022-11-02T13:36:22.712Z,14.90
2022-11-02T13:38:58.858Z,15.10
2022-11-02T13:41:35.442Z,15.30
2022-11-02T13:44:09.683Z,15.30
2022-11-02T13:46:59.028Z,15.30
2022-11-02T13:49:28.876Z,15.20
2022-11-02T13:52:02.542Z,15.00
2022-11-02T13:54:35.623Z,15.00
2022-11-02T13:57:03.130Z,15.10
2022-11-02T13:59:43.068Z,15.10
2022-11-02T14:02:16.823Z,15.00
2022-11-02T14:04:44.640Z,14.90
2022-11-02T14:07:26.458Z,14.90
2022-11-02T14:09:58.930Z,14.90
2022-11-02T14:12:27.995Z,14.80
2022-11-02T14:15:12.864Z,14.90
2022-11-02T14:18:11.364Z,14.90
2022-11-02T14:20:43.972Z,14.80
2022-11-02T14:23:19.880Z,14.60
2022-11-02T14:25:53.836Z,14.60
2022-11-02T14:28:25.842Z,14.60
2022-11-02T14:31:04.731Z,14.70
2022-11-02T14:34:02.656Z,14.80
2022-11-02T14:36:55.573Z,14.90
2022-11-02T14:39:30.334Z,14.90
2022-11-02T14:57:15.526Z,14.40
2022-11-02T14:59:48.981Z,14.30
2022-11-02T15:02:15.758Z,14.30
2022-11-02T15:04:54.313Z,14.20
2022-11-02T15:07:35.742Z,14.10
2022-11-02T15:10:24.411Z,14.10
2022-11-02T15:13:19.978Z,13.90
2022-11-02T15:16:12.351Z,13.70
2022-11-02T15:18:40.615Z,13.70
2022-11-02T15:21:10.479Z,13.60
2022-11-02T15:24:00.413Z,13.40
2022-11-02T15:27:00.670Z,13.30
2022-11-02T15:30:00.020Z,13.40
2022-11-02T15:32:30.016Z,13.20
2022-11-02T15:34:57.649Z,13.20
2022-11-02T15:37:34.657Z,13.10
2022-11-02T15:40:19.717Z,13.10
2022-11-02T15:43:35.404Z,13.10
2022-11-02T15:46:09.388Z,13.00
2022-11-02T15:48:56.395Z,12.90
2022-11-02T15:51:36.762Z,12.80
2022-11-02T15:54:20.638Z,12.70
2022-11-02T15:57:00.437Z,12.60
2022-11-02T15:59:52.645Z,12.50
2022-11-02T16:02:25.359Z,12.50
2022-11-02T16:04:57.879Z,12.50
2022-11-02T16:07:33.155Z,12.30
2022-11-02T16:10:32.866Z,12.20
2022-11-02T16:13:17.468Z,12.20
2022-11-02T16:15:45.582Z,12.10
2022-11-02T16:18:26.883Z,12.00
2022-11-02T16:21:01.248Z,11.80
2022-11-02T16:23:31.700Z,11.70
2022-11-02T16:26:00.775Z,11.60
2022-11-02T16:28:28.928Z,11.60
2022-11-02T16:31:17.903Z,11.60
2022-11-02T16:33:56.877Z,11.60
2022-11-02T16:36:25.786Z,11.60
2022-11-02T16:39:20.418Z,11.60
2022-11-02T16:41:56.922Z,11.60
2022-11-02T16:44:30.679Z,11.60
2022-11-02T16:46:59.107Z,11.50
2022-11-02T16:49:27.901Z,11.40
2022-11-02T16:51:59.863Z,11.30
2022-11-02T16:54:31.450Z,11.10
2022-11-02T16:57:11.503Z,11.10
2022-11-02T16:59:56.022Z,11.00
2022-11-02T17:02:38.324Z,10.90
2022-11-02T17:05:13.957Z,10.90
2022-11-02T17:07:43.654Z,10.90
2022-11-02T17:10:20.975Z,10.80
2022-11-02T17:12:48.691Z,10.80
2022-11-02T17:15:22.535Z,10.80
2022-11-02T17:17:49.508Z,10.90
2022-11-02T17:20:34.963Z,11.00
2022-11-02T17:23:30.700Z,11.00
2022-11-02T17:26:22.177Z,11.00
2022-11-02T17:29:25.035Z,10.90
2022-11-02T17:32:00.801Z,10.90
2022-11-02T17:34:28.355Z,11.00
2022-11-02T17:36:55.454Z,11.00
2022-11-02T17:39:22.311Z,11.10
2022-11-02T17:42:17.825Z,11.00
2022-11-02T17:44:48.353Z,11.00
2022-11-02T17:47:18.264Z,11.00
2022-11-02T17:49:45.126Z,11.00
2022-11-02T17:52:14.225Z,11.10
2022-11-02T17:54:41.052Z,11.10
2022-11-02T17:57:15.086Z,11.10
2022-11-02T17:59:42.533Z,11.00
2022-11-02T18:02:16.254Z,11.00
2022-11-02T18:07:30.016Z,11.00
2022-11-02T18:09:56.760Z,11.10
2022-11-02T18:12:23.840Z,11.20
2022-11-02T18:14:50.708Z,11.20
2022-11-02T18:17:17.679Z,11.30
2022-11-02T18:19:44.479Z,11.40
2022-11-02T18:22:13.101Z,11.30
2022-11-02T18:24:39.951Z,11.40
2022-11-02T18:27:06.729Z,11.30
2022-11-02T18:29:33.839Z,11.20
2022-11-02T18:32:00.618Z,11.10
2022-11-02T18:34:27.400Z,11.10
2022-11-02T18:36:54.228Z,11.10
2022-11-02T18:39:21.021Z,11.10
2022-11-02T18:41:47.944Z,11.10
2022-11-02T18:44:15.675Z,11.10
2022-11-02T18:46:43.042Z,11.10
2022-11-02T18:49:09.864Z,11.10
2022-11-02T18:51:36.699Z,11.00
2022-11-02T18:54:05.751Z,11.00
2022-11-02T18:56:38.567Z,11.00
2022-11-02T18:59:05.396Z,11.20
2022-11-02T19:01:32.456Z,11.10
2022-11-02T19:04:00.328Z,11.00
2022-11-02T19:06:48.622Z,11.10
2022-11-02T19:09:19.360Z,11.10
2022-11-02T19:11:56.851Z,11.10
2022-11-02T19:14:24.815Z,11.10
2022-11-02T19:16:51.912Z,11.10
2022-11-02T19:19:18.778Z,11.00
2022-11-02T19:21:45.564Z,11.00
2022-11-02T19:24:12.872Z,11.00
2022-11-02T19:26:39.692Z,11.00
2022-11-02T19:29:07.068Z,11.00
2022-11-02T19:31:35.549Z,11.00
2022-11-02T19:34:03.107Z,11.00
2022-11-02T19:36:30.462Z,11.00
2022-11-02T19:38:58.387Z,11.10
2022-11-02T19:41:25.280Z,11.10
2022-11-02T19:43:53.084Z,11.10
2022-11-02T19:46:21.716Z,11.10
2022-11-02T19:48:48.721Z,11.10
2022-11-02T19:51:34.268Z,11.10
2022-11-02T19:54:02.651Z,11.10
2022-11-02T19:56:36.160Z,11.10
2022-11-02T19:59:04.383Z,11.10
2022-11-02T20:01:33.423Z,11.00
2022-11-02T20:04:00.887Z,11.00
2022-11-02T20:06:39.553Z,11.00
2022-11-02T20:09:17.436Z,11.00
2022-11-02T20:11:45.541Z,10.90
2022-11-02T20:14:14.596Z,10.90
2022-11-02T20:16:42.148Z,10.90
2022-11-02T20:19:09.383Z,10.90
2022-11-02T20:21:42.639Z,10.80
2022-11-02T20:24:10.846Z,10.80
2022-11-02T20:26:43.748Z,10.80
2022-11-02T20:29:13.716Z,10.70
2022-11-02T20:31:44.998Z,10.70
2022-11-02T20:34:13.011Z,10.70
2022-11-02T20:36:39.916Z,10.80
2022-11-02T20:39:07.558Z,10.70
2022-11-02T20:41:34.536Z,10.70
2022-11-02T20:44:01.361Z,10.70
2022-11-02T20:46:40.022Z,10.70
2022-11-02T21:26:35.846Z,10.70
2022-11-02T21:29:02.706Z,10.80
2022-11-02T21:31:29.535Z,10.80
2022-11-02T21:33:56.408Z,10.80
2022-11-02T21:36:23.253Z,10.90
2022-11-02T21:38:50.059Z,10.90
2022-11-02T21:41:21.635Z,10.90
2022-11-02T21:43:51.952Z,10.90
2022-11-02T21:46:19.949Z,10.90
2022-11-02T21:48:47.038Z,10.90
2022-11-02T21:51:19.149Z,10.90
2022-11-02T21:53:47.289Z,10.90
2022-11-02T21:56:23.023Z,10.90
2022-11-02T21:58:49.877Z,10.90
2022-11-02T22:01:45.361Z,10.80
2022-11-02T22:04:21.639Z,10.80
2022-11-02T22:06:49.553Z,10.80
2022-11-02T22:09:16.373Z,10.70
2022-11-02T22:11:44.845Z,10.70
2022-11-02T22:14:12.391Z,10.60
2022-11-02T22:16:41.514Z,10.60
2022-11-02T22:19:13.967Z,10.50
2022-11-02T22:21:45.077Z,10.40
2022-11-02T22:24:12.591Z,10.50
2022-11-02T22:26:39.747Z,10.50
2022-11-02T22:29:07.013Z,10.40
2022-11-02T22:31:36.381Z,10.40
2022-11-02T22:34:05.104Z,10.40
2022-11-02T22:36:33.765Z,10.40
2022-11-02T22:39:02.153Z,10.30
2022-11-02T22:41:48.254Z,10.30
2022-11-02T22:44:18.473Z,10.30
2022-11-02T22:46:47.685Z,10.20
2022-11-02T22:49:16.407Z,10.20
2022-11-02T22:51:45.749Z,10.10
2022-11-02T22:54:15.698Z,10.10
2022-11-02T22:56:44.087Z,10.10
2022-11-02T22:59:11.289Z,10.10
2022-11-02T23:01:38.971Z,10.10
2022-11-02T23:04:06.647Z,10.10
2022-11-02T23:06:34.209Z,10.10
2022-11-02T23:09:01.400Z,10.20
2022-11-02T23:11:31.223Z,10.10
2022-11-02T23:14:03.881Z,10.10
2022-11-02T23:16:33.367Z,10.10
2022-11-02T23:19:26.412Z,10.00
2022-11-02T23:22:27.586Z,9.90
2022-11-02T23:25:12.582Z,9.90
2022-11-02T23:28:06.531Z,9.90
2022-11-02T23:30:54.435Z,9.90
2022-11-02T23:33:22.518Z,9.90
2022-11-02T23:36:08.404Z,9.80
2022-11-02T23:38:58.268Z,9.90
2022-11-02T23:41:25.675Z,10.00
2022-11-02T23:44:11.279Z,10.00
2022-11-02T23:46:39.392Z,10.00
2022-11-02T23:49:06.505Z,10.00
2022-11-02T23:51:51.947Z,9.90
2022-11-02T23:54:37.362Z,10.00
2022-11-02T23:57:04.402Z,10.00
2022-11-02T23:59:31.174Z,10.10
